Time;durP1;ratioP1;P1;durP2;ratioP2;P2;SDS_P1;SDS_P2;PMS_P1;PMS_P2;Temp;Humidity;BMP_temperature;BMP_pressure;BME280_temperature;BME280_humidity;BME280_pressure;Samples;Min_cycle;Max_cycle;Signal;HPM_P1;HPM_P2
2021/12/25 00:01:20;;;;;;;50.63;27.88;;;;;;;3.58;100.00;100363.16;4991736;28;20049;-77
2021/12/25 00:03:52;;;;;;;60.90;27.98;;;;;;;3.66;100.00;100361.97;4971517;28;20046;-78
2021/12/25 00:06:23;;;;;;;53.25;26.98;;;;;;;3.77;100.00;100354.91;4991592;28;20042;-78
2021/12/25 00:08:52;;;;;;;57.95;28.23;;;;;;;3.67;100.00;100355.50;4988044;28;20405;-78
2021/12/25 00:11:20;;;;;;;59.10;27.98;;;;;;;3.69;100.00;100337.16;4992093;28;20503;-78
2021/12/25 00:13:47;;;;;;;59.47;30.40;;;;;;;3.49;100.00;100349.19;4990820;28;20054;-76
2021/12/25 00:16:15;;;;;;;58.40;27.33;;;;;;;3.57;100.00;100355.31;4983006;28;20050;-75
2021/12/25 00:18:43;;;;;;;59.45;27.15;;;;;;;3.58;100.00;100341.53;4989762;28;20050;-78
2021/12/25 00:21:11;;;;;;;54.13;28.00;;;;;;;3.70;100.00;100355.03;4988068;28;20045;-78
2021/12/25 00:23:39;;;;;;;63.80;29.65;;;;;;;3.66;100.00;100353.84;4977433;28;20051;-76
2021/12/25 00:26:12;;;;;;;62.63;29.25;;;;;;;3.65;100.00;100352.22;4988074;28;20420;-76
2021/12/25 00:36:16;;;;;;;60.75;29.27;;;;;;;3.59;100.00;100342.34;4984791;28;20047;-77
2021/12/25 00:38:45;;;;;;;59.30;27.77;;;;;;;3.62;100.00;100336.47;4992497;28;20034;-77
2021/12/25 00:41:15;;;;;;;56.97;26.98;;;;;;;3.68;100.00;100335.53;4992383;28;20297;-76
2021/12/25 00:43:44;;;;;;;57.25;26.95;;;;;;;3.61;100.00;100343.75;4992520;28;20069;-77
2021/12/25 00:46:13;;;;;;;57.13;29.58;;;;;;;3.63;100.00;100332.72;4972072;28;20047;-77
2021/12/25 00:48:41;;;;;;;56.88;29.10;;;;;;;3.54;100.00;100334.13;4989445;28;20046;-76
2021/12/25 00:51:09;;;;;;;58.85;27.63;;;;;;;3.55;100.00;100331.19;4992521;28;20409;-77
2021/12/25 00:53:37;;;;;;;57.97;28.98;;;;;;;3.51;100.00;100323.78;4992263;28;20492;-76
2021/12/25 00:56:05;;;;;;;53.75;27.42;;;;;;;3.57;100.00;100333.66;4994746;28;20049;-77
2021/12/25 00:58:33;;;;;;;56.70;28.00;;;;;;;3.55;100.00;100346.59;4978803;28;20042;-77
2021/12/25 01:01:01;;;;;;;53.25;27.42;;;;;;;3.63;100.00;100324.59;4995395;28;20039;-77
2021/12/25 01:03:29;;;;;;;52.90;27.00;;;;;;;3.53;100.00;100337.91;4978558;28;20046;-77
2021/12/25 01:05:57;;;;;;;54.92;27.67;;;;;;;3.58;100.00;100336.09;4996260;28;20042;-77
2021/12/25 01:08:25;;;;;;;66.32;29.73;;;;;;;3.73;100.00;100337.50;4978560;28;20046;-77
2021/12/25 01:10:54;;;;;;;53.65;27.33;;;;;;;3.65;100.00;100335.97;4993428;28;20046;-77
2021/12/25 01:13:34;;;;;;;55.00;27.15;;;;;;;3.57;100.00;100326.34;4972538;28;20050;-77
2021/12/25 01:29:53;;;;;;;56.35;26.60;;;;;;;3.57;100.00;100353.41;4978068;28;20418;-77
2021/12/25 01:35:59;;;;;;;57.38;28.73;;;;;;;3.68;100.00;100340.09;4972377;28;20078;-77
2021/12/25 01:49:59;;;;;;;56.28;27.27;;;;;;;3.97;100.00;100340.94;4976821;28;20030;-78
2021/12/25 01:52:30;;;;;;;58.03;26.80;;;;;;;4.10;100.00;100331.69;4993204;28;20492;-77
2021/12/25 01:55:02;;;;;;;47.67;27.15;;;;;;;4.06;100.00;100338.66;4991654;28;20038;-78
2021/12/25 01:57:30;;;;;;;51.45;26.15;;;;;;;4.00;100.00;100329.63;4977684;28;20051;-78
2021/12/25 01:59:59;;;;;;;58.88;27.88;;;;;;;3.97;100.00;100334.72;4965249;28;20051;-78
2021/12/25 02:02:28;;;;;;;54.67;28.30;;;;;;;3.98;100.00;100323.66;4961668;28;20042;-78
2021/12/25 02:04:56;;;;;;;54.85;25.73;;;;;;;3.96;100.00;100327.66;4976700;28;20054;-77
2021/12/25 02:07:24;;;;;;;53.55;28.45;;;;;;;3.88;100.00;100332.41;4970271;28;20043;-77
2021/12/25 02:09:52;;;;;;;54.17;27.15;;;;;;;3.79;100.00;100325.72;4969632;28;20042;-78
2021/12/25 02:12:22;;;;;;;53.28;26.50;;;;;;;3.73;100.00;100322.06;4957669;28;20050;-77
2021/12/25 02:14:51;;;;;;;59.28;28.35;;;;;;;3.72;100.00;100325.84;4992310;28;20050;-78
2021/12/25 02:20:09;;;;;;;51.97;27.25;;;;;;;3.63;100.00;100316.47;4973935;28;20050;-78
2021/12/25 02:22:37;;;;;;;52.10;26.38;;;;;;;3.68;100.00;100308.44;4981042;28;20050;-77
2021/12/25 02:25:06;;;;;;;52.90;26.55;;;;;;;3.63;100.00;100305.66;4976896;28;20046;-77
2021/12/25 02:27:34;;;;;;;55.50;27.60;;;;;;;3.66;100.00;100305.16;4977059;28;20049;-78
2021/12/25 02:30:04;;;;;;;52.83;26.70;;;;;;;3.78;100.00;100304.28;4977239;28;20046;-77
2021/12/25 02:32:32;;;;;;;55.92;26.83;;;;;;;3.85;100.00;100302.25;4994353;28;20046;-77
2021/12/25 02:35:00;;;;;;;55.78;27.48;;;;;;;3.81;100.00;100295.69;4963391;28;20517;-77
2021/12/25 02:37:28;;;;;;;53.40;26.42;;;;;;;3.88;100.00;100293.66;4987055;28;20058;-78
2021/12/25 02:39:56;;;;;;;54.63;26.02;;;;;;;3.87;100.00;100295.53;4960894;28;20118;-78
2021/12/25 02:42:23;;;;;;;55.42;25.92;;;;;;;3.74;100.00;100295.84;4994395;28;20485;-77
2021/12/25 02:44:51;;;;;;;56.30;26.80;;;;;;;3.70;100.00;100291.94;4976868;28;20038;-78
2021/12/25 02:47:21;;;;;;;62.13;30.08;;;;;;;3.62;100.00;100287.75;4977052;28;20440;-78
2021/12/25 02:49:51;;;;;;;58.13;29.27;;;;;;;3.65;100.00;100281.06;4959517;28;20058;-77
2021/12/25 02:52:19;;;;;;;62.72;30.33;;;;;;;3.86;100.00;100272.25;4976825;28;20206;-78
2021/12/25 02:54:47;;;;;;;59.58;31.45;;;;;;;3.74;100.00;100275.00;4991773;28;20049;-77
2021/12/25 02:57:16;;;;;;;58.25;29.10;;;;;;;3.80;100.00;100261.56;4974322;28;20109;-77
2021/12/25 02:59:44;;;;;;;61.17;30.30;;;;;;;3.64;100.00;100266.69;4983916;28;20038;-77
2021/12/25 03:02:16;;;;;;;58.42;29.35;;;;;;;3.61;100.00;100269.88;4973563;28;20515;-77
2021/12/25 03:04:48;;;;;;;61.50;30.27;;;;;;;3.63;100.00;100271.25;4957544;28;20038;-77
2021/12/25 03:07:17;;;;;;;62.33;31.52;;;;;;;3.69;100.00;100274.06;4992085;28;20053;-77
2021/12/25 03:09:48;;;;;;;58.33;29.27;;;;;;;3.63;100.00;100276.69;4976327;28;20051;-77
2021/12/25 03:12:25;;;;;;;66.07;30.20;;;;;;;3.60;100.00;100273.63;4976312;28;20392;-78
2021/12/25 03:15:06;;;;;;;66.25;30.80;;;;;;;3.51;100.00;100280.50;4976111;28;20058;-78
2021/12/25 03:17:35;;;;;;;55.88;28.92;;;;;;;3.53;100.00;100290.03;4976389;28;20035;-78
2021/12/25 03:20:07;;;;;;;64.88;30.38;;;;;;;3.59;100.00;100282.81;4991699;28;20039;-78
2021/12/25 03:22:37;;;;;;;62.95;30.05;;;;;;;3.62;100.00;100287.75;4993115;28;20057;-78
2021/12/25 03:25:11;;;;;;;62.55;30.40;;;;;;;3.64;100.00;100291.03;4993609;28;20050;-78
2021/12/25 03:27:41;;;;;;;65.88;31.60;;;;;;;3.64;100.00;100304.56;4958032;28;20050;-78
2021/12/25 03:30:10;;;;;;;64.90;31.10;;;;;;;3.61;100.00;100300.47;4976249;28;20049;-78
2021/12/25 03:32:38;;;;;;;59.97;30.23;;;;;;;3.59;100.00;100296.34;4976188;28;20046;-78
2021/12/25 03:35:07;;;;;;;59.90;30.45;;;;;;;3.57;100.00;100291.19;4972190;28;20050;-78
2021/12/25 03:37:35;;;;;;;64.47;30.80;;;;;;;3.54;100.00;100280.00;4986945;28;20488;-78
2021/12/25 03:40:03;;;;;;;63.47;30.45;;;;;;;3.56;100.00;100275.19;4975833;28;20042;-78
2021/12/25 03:42:32;;;;;;;62.45;31.30;;;;;;;3.82;100.00;100264.84;4993190;28;20396;-78
2021/12/25 03:45:00;;;;;;;58.92;30.20;;;;;;;3.73;100.00;100270.63;4993078;28;20053;-78
2021/12/25 03:47:36;;;;;;;65.28;31.02;;;;;;;3.69;100.00;100277.63;4976048;28;20054;-78
2021/12/25 03:58:26;;;;;;;54.60;27.95;;;;;;;3.54;100.00;100259.19;4975599;28;20046;-78
2021/12/25 04:01:00;;;;;;;57.80;29.77;;;;;;;3.52;100.00;100268.63;4993092;28;20038;-78
2021/12/25 04:03:43;;;;;;;53.58;27.73;;;;;;;3.52;100.00;100269.41;4975536;28;20057;-78
2021/12/25 04:06:12;;;;;;;61.22;28.17;;;;;;;3.61;100.00;100275.28;4974794;28;20077;-78
2021/12/25 04:08:46;;;;;;;63.17;28.75;;;;;;;3.73;100.00;100267.94;4975590;28;20049;-78
2021/12/25 04:11:26;;;;;;;56.22;29.75;;;;;;;3.72;100.00;100279.03;4992897;28;20049;-78
2021/12/25 04:13:55;;;;;;;50.10;26.70;;;;;;;3.72;100.00;100265.50;4974980;28;20050;-78
2021/12/25 04:16:28;;;;;;;53.15;26.90;;;;;;;3.72;100.00;100270.91;4975464;28;20405;-78
2021/12/25 04:18:57;;;;;;;62.05;28.42;;;;;;;3.76;100.00;100278.28;4955480;28;20051;-78
2021/12/25 04:21:25;;;;;;;55.55;26.33;;;;;;;3.76;100.00;100262.03;4983575;28;20750;-78
2021/12/25 04:23:53;;;;;;;56.20;28.58;;;;;;;3.73;100.00;100259.81;4955998;28;20055;-78
2021/12/25 04:26:23;;;;;;;57.00;27.60;;;;;;;3.88;100.00;100261.19;4991516;28;20058;-78
2021/12/25 04:48:37;;;;;;;52.28;26.67;;;;;;;3.70;100.00;100265.72;4996545;28;20501;-78
2021/12/25 05:02:05;;;;;;;50.63;26.58;;;;;;;3.62;100.00;100255.28;4984428;28;20038;-78
2021/12/25 05:05:14;;;;;;;49.15;24.52;;;;;;;3.80;100.00;100254.25;4957098;28;20058;-78
2021/12/25 05:07:55;;;;;;;49.95;26.63;;;;;;;3.61;100.00;100249.03;4994822;28;20521;-78
2021/12/25 05:10:23;;;;;;;54.72;28.15;;;;;;;3.66;100.00;100232.06;4995984;28;20069;-78
2021/12/25 05:12:51;;;;;;;55.30;28.38;;;;;;;3.71;100.00;100244.91;4995852;28;20058;-78
2021/12/25 05:15:19;;;;;;;58.97;29.27;;;;;;;3.84;100.00;100247.31;4995750;28;20382;-78
2021/12/25 05:17:48;;;;;;;54.75;28.15;;;;;;;3.87;100.00;100240.59;4978102;28;20067;-77
2021/12/25 05:20:17;;;;;;;52.58;26.40;;;;;;;3.81;100.00;100241.56;4978630;28;20042;-78
2021/12/25 05:22:46;;;;;;;53.95;27.38;;;;;;;3.83;100.00;100240.25;4961911;28;20043;-78
2021/12/25 05:25:15;;;;;;;62.30;28.27;;;;;;;3.83;100.00;100244.84;4995870;28;20057;-78
2021/12/25 05:27:55;;;;;;;52.65;27.40;;;;;;;4.00;100.00;100239.44;4978382;28;20046;-78
2021/12/25 05:30:24;;;;;;;55.08;28.05;;;;;;;3.91;100.00;100241.72;4978436;28;20049;-78
2021/12/25 05:33:10;;;;;;;52.80;25.58;;;;;;;3.87;100.00;100232.47;4977468;28;20054;-78
2021/12/25 05:36:05;;;;;;;56.22;26.38;;;;;;;3.80;100.00;100234.50;4978019;28;20053;-78
2021/12/25 05:38:45;;;;;;;57.95;26.73;;;;;;;3.67;100.00;100231.00;4977857;28;20050;-78
2021/12/25 05:41:27;;;;;;;55.25;26.85;;;;;;;3.63;100.00;100221.75;4995312;28;20210;-78
2021/12/25 05:43:57;;;;;;;53.83;26.77;;;;;;;3.55;100.00;100239.19;4978276;28;20042;-78
2021/12/25 05:46:46;;;;;;;53.15;26.15;;;;;;;3.63;100.00;100224.47;4990967;28;20046;-78
2021/12/25 05:49:15;;;;;;;55.90;28.02;;;;;;;3.55;100.00;100233.78;4978024;28;20042;-78
2021/12/25 05:51:53;;;;;;;52.85;28.05;;;;;;;3.53;100.00;100240.50;4978012;28;20047;-78
2021/12/25 05:54:44;;;;;;;50.30;25.63;;;;;;;3.58;100.00;100237.88;4994748;28;20057;-78
2021/12/25 05:57:35;;;;;;;52.20;25.92;;;;;;;3.84;100.00;100238.34;4967294;28;20066;-78
2021/12/25 06:00:26;;;;;;;53.22;27.13;;;;;;;3.86;100.00;100257.91;4993936;28;20042;-78
2021/12/25 06:02:54;;;;;;;57.55;27.20;;;;;;;3.72;100.00;100265.50;4989701;28;20065;-78
2021/12/25 06:05:31;;;;;;;53.05;26.95;;;;;;;3.69;100.00;100258.66;4977046;28;20042;-78
2021/12/25 06:07:59;;;;;;;56.65;27.77;;;;;;;3.75;100.00;100265.81;4994683;28;20045;-78
2021/12/25 06:10:27;;;;;;;56.47;28.70;;;;;;;3.67;100.00;100273.50;4993788;28;20392;-78
2021/12/25 06:12:58;;;;;;;52.85;27.83;;;;;;;3.63;100.00;100273.16;4977042;28;20038;-78
2021/12/25 06:15:29;;;;;;;53.58;26.35;;;;;;;3.55;100.00;100274.38;4977154;28;20477;-78
2021/12/25 06:18:23;;;;;;;49.30;27.52;;;;;;;3.61;100.00;100280.69;4959375;28;20058;-78
2021/12/25 06:21:00;;;;;;;46.13;24.85;;;;;;;3.58;100.00;100276.56;4964354;28;20050;-78
2021/12/25 06:23:55;;;;;;;48.33;24.70;;;;;;;3.62;100.00;100275.03;4953107;28;20080;-79
2021/12/25 06:26:52;;;;;;;59.42;28.95;;;;;;;3.68;100.00;100275.97;4983208;28;20054;-79
2021/12/25 06:29:37;;;;;;;53.10;26.42;;;;;;;3.63;100.00;100273.16;4963113;28;20046;-79
2021/12/25 06:32:24;;;;;;;54.15;27.52;;;;;;;3.59;100.00;100289.06;4986989;28;20042;-79
2021/12/25 06:35:31;;;;;;;51.97;26.90;;;;;;;3.63;100.00;100298.31;4914856;29;20048;-78
2021/12/25 06:38:18;;;;;;;55.03;28.73;;;;;;;3.75;100.00;100300.19;4898960;29;20056;-78
2021/12/25 06:41:12;;;;;;;51.65;27.20;;;;;;;3.80;100.00;100296.75;4959202;28;20073;-79
2021/12/25 06:43:41;;;;;;;57.53;27.52;;;;;;;3.58;100.00;100290.09;4961011;28;20400;-79
2021/12/25 06:46:12;;;;;;;57.28;28.20;;;;;;;3.60;100.00;100284.47;4966490;28;20059;-78
2021/12/25 06:48:41;;;;;;;60.75;28.13;;;;;;;3.57;100.00;100296.59;4970660;28;20038;-79
2021/12/25 06:51:12;;;;;;;60.72;27.98;;;;;;;3.59;100.00;100291.78;4986608;28;20055;-79
2021/12/25 06:53:43;;;;;;;53.63;28.67;;;;;;;3.47;100.00;100296.41;4979564;28;20050;-79
2021/12/25 06:56:31;;;;;;;57.45;28.67;;;;;;;3.51;100.00;100288.63;4974920;28;20050;-79
2021/12/25 06:59:02;;;;;;;52.78;27.52;;;;;;;3.58;100.00;100286.59;4974730;28;20085;-79
2021/12/25 07:01:35;;;;;;;56.67;27.10;;;;;;;3.63;100.00;100284.00;4960776;28;20053;-79
2021/12/25 07:04:09;;;;;;;53.10;28.15;;;;;;;3.67;100.00;100274.31;4930898;28;20058;-79
2021/12/25 07:06:56;;;;;;;52.70;26.17;;;;;;;3.64;100.00;100266.69;4975243;28;20106;-79
2021/12/25 07:09:24;;;;;;;52.13;26.80;;;;;;;3.70;100.00;100267.59;4992892;28;20039;-78
2021/12/25 07:12:36;;;;;;;54.45;28.60;;;;;;;3.65;100.00;100272.94;4932816;29;20499;-77
2021/12/25 07:15:26;;;;;;;50.85;26.60;;;;;;;3.61;100.00;100273.41;4974888;28;20050;-78
2021/12/25 07:18:14;;;;;;;49.60;28.08;;;;;;;3.45;100.00;100266.88;4977083;28;20065;-78
2021/12/25 07:21:14;;;;;;;59.03;29.02;;;;;;;3.61;100.00;100268.00;4970263;28;20125;-78
2021/12/25 07:24:22;;;;;;;55.40;27.38;;;;;;;3.48;100.00;100262.88;4950548;29;20043;-78
2021/12/25 07:26:58;;;;;;;49.85;26.80;;;;;;;3.56;100.00;100280.63;4958853;28;20426;-77
2021/12/25 07:29:37;;;;;;;57.17;28.50;;;;;;;3.74;100.00;100282.28;4979175;28;20035;-77
2021/12/25 07:32:05;;;;;;;52.28;27.02;;;;;;;3.68;100.00;100269.72;4992407;28;20050;-77
2021/12/25 07:34:33;;;;;;;49.83;26.63;;;;;;;3.78;100.00;100271.81;4975273;28;20053;-78
2021/12/25 07:37:01;;;;;;;48.00;26.60;;;;;;;3.83;100.00;100266.50;4940663;28;20055;-78
2021/12/25 07:39:30;;;;;;;57.70;29.25;;;;;;;3.74;100.00;100269.59;4988045;28;20065;-77
2021/12/25 07:41:58;;;;;;;61.25;28.30;;;;;;;3.76;100.00;100269.34;4999602;28;20045;-78
2021/12/25 07:44:34;;;;;;;59.45;28.80;;;;;;;3.93;100.00;100273.97;4959786;28;20053;-78
2021/12/25 07:47:08;;;;;;;54.72;27.92;;;;;;;3.80;100.00;100262.38;4992218;28;20058;-80
2021/12/25 07:49:38;;;;;;;55.15;25.95;;;;;;;3.98;100.00;100268.66;4989335;28;20049;-78
2021/12/25 07:52:06;;;;;;;53.63;26.10;;;;;;;3.89;100.00;100276.34;4990776;28;20049;-78
2021/12/25 07:54:34;;;;;;;48.58;25.73;;;;;;;3.79;100.00;100251.78;4993281;28;20047;-78
2021/12/25 07:57:02;;;;;;;50.10;26.38;;;;;;;3.75;100.00;100271.22;4968516;28;20444;-77
2021/12/25 07:59:31;;;;;;;48.13;24.95;;;;;;;3.70;100.00;100265.72;4992623;28;20038;-78
2021/12/25 08:01:59;;;;;;;54.15;26.08;;;;;;;4.02;100.00;100265.22;4992899;28;20053;-79
2021/12/25 08:04:27;;;;;;;54.10;27.40;;;;;;;4.09;100.00;100262.34;4985056;28;20052;-79
2021/12/25 08:06:55;;;;;;;50.92;27.13;;;;;;;4.10;100.00;100258.56;4987540;28;20047;-80
2021/12/25 08:09:30;;;;;;;50.78;28.13;;;;;;;3.98;100.00;100255.94;4964797;28;20050;-79
2021/12/25 08:12:01;;;;;;;52.03;27.48;;;;;;;4.19;100.00;100269.84;4994887;28;20038;-78
2021/12/25 08:14:30;;;;;;;49.75;25.90;;;;;;;4.24;100.00;100261.78;4986802;28;20042;-72
2021/12/25 08:17:00;;;;;;;44.33;26.02;;;;;;;4.12;100.00;100270.00;4985595;28;20053;-73
2021/12/25 08:19:49;;;;;;;47.22;26.02;;;;;;;4.09;100.00;100277.78;4991202;28;20050;-73
2021/12/25 08:22:37;;;;;;;50.88;25.50;;;;;;;4.06;100.00;100272.84;4988580;28;20481;-71
2021/12/25 08:25:24;;;;;;;54.72;31.40;;;;;;;3.94;100.00;100273.75;4992292;28;20046;-72
2021/12/25 08:28:24;;;;;;;57.75;30.15;;;;;;;4.05;100.00;100279.34;4950549;28;20490;-71
2021/12/25 08:31:10;;;;;;;54.00;28.02;;;;;;;4.15;100.00;100276.78;4978616;28;20065;-71
2021/12/25 08:34:11;;;;;;;49.50;26.67;;;;;;;4.21;100.00;100289.34;4959849;28;20083;-73
2021/12/25 08:37:00;;;;;;;46.90;25.45;;;;;;;4.22;100.00;100279.34;4960766;28;20054;-72
2021/12/25 08:39:28;;;;;;;47.88;26.33;;;;;;;4.34;100.00;100273.88;4950498;28;20047;-91
2021/12/25 08:42:05;;;;;;;48.10;24.80;;;;;;;4.50;100.00;100267.63;4943576;28;20400;-88
2021/12/25 08:44:39;;;;;;;46.40;24.80;;;;;;;4.57;100.00;100260.16;4952150;28;20058;-89
2021/12/25 08:47:11;;;;;;;43.13;24.48;;;;;;;4.65;100.00;100260.81;4942378;28;20050;-89
2021/12/25 08:49:42;;;;;;;49.70;24.67;;;;;;;4.65;100.00;100255.38;4951910;28;20081;-88
2021/12/25 08:52:16;;;;;;;42.30;23.75;;;;;;;4.64;100.00;100262.69;4949257;28;20051;-89
2021/12/25 08:54:44;;;;;;;;;;;;;;;4.70;100.00;100258.19;4963337;28;20043;-89
2021/12/25 08:57:13;;;;;;;45.38;23.13;;;;;;;4.66;100.00;100257.84;4944228;28;19922;-89
2021/12/25 08:59:41;;;;;;;48.53;24.85;;;;;;;4.63;100.00;100271.06;4959628;28;20043;-72
2021/12/25 09:02:13;;;;;;;53.13;27.05;;;;;;;4.44;100.00;100277.56;4940987;28;20050;-73
2021/12/25 09:04:45;;;;;;;50.92;26.25;;;;;;;4.25;100.00;100276.97;4954629;28;20397;-74
2021/12/25 09:07:13;;;;;;;46.22;26.50;;;;;;;4.20;100.00;100276.88;4955863;28;20047;-73
2021/12/25 09:09:42;;;;;;;49.70;27.25;;;;;;;4.30;100.00;100276.22;4957654;28;20050;-73
2021/12/25 09:12:13;;;;;;;49.83;26.70;;;;;;;4.56;100.00;100280.19;4969040;28;20050;-73
2021/12/25 09:14:41;;;;;;;55.15;27.25;;;;;;;4.49;100.00;100274.13;4983165;28;20047;-73
2021/12/25 09:17:10;;;;;;;54.60;28.50;;;;;;;4.52;100.00;100276.34;4980979;28;20054;-73
2021/12/25 09:19:38;;;;;;;49.63;26.92;;;;;;;4.44;100.00;100279.44;4979365;28;20489;-72
2021/12/25 09:22:08;;;;;;;48.97;25.10;;;;;;;4.25;100.00;100274.25;4987985;28;20054;-72
2021/12/25 09:24:37;;;;;;;49.88;26.73;;;;;;;4.29;100.00;100278.13;4990890;28;20046;-72
2021/12/25 09:27:06;;;;;;;47.95;24.50;;;;;;;4.35;100.00;100270.91;4991069;28;20057;-82
2021/12/25 09:29:35;;;;;;;56.08;26.58;;;;;;;4.33;100.00;100261.38;4989136;28;20382;-70
2021/12/25 09:32:03;;;;;;;49.88;26.60;;;;;;;4.42;100.00;100257.19;4977778;28;20042;-71
2021/12/25 09:34:33;;;;;;;53.40;28.70;;;;;;;4.33;100.00;100264.09;4980760;28;20046;-72
2021/12/25 09:37:02;;;;;;;52.72;27.67;;;;;;;4.45;100.00;100251.28;4986206;28;20055;-72
2021/12/25 09:39:31;;;;;;;50.25;25.52;;;;;;;4.58;100.00;100239.28;4977975;28;20046;-72
2021/12/25 09:42:00;;;;;;;57.78;28.45;;;;;;;4.49;100.00;100252.44;4982544;28;20042;-72
2021/12/25 09:44:28;;;;;;;49.20;27.70;;;;;;;4.43;100.00;100237.16;4978347;28;20050;-72
2021/12/25 09:46:57;;;;;;;58.17;28.75;;;;;;;4.72;100.00;100231.63;4980608;28;20498;-72
2021/12/25 09:49:25;;;;;;;53.03;29.35;;;;;;;4.66;100.00;100238.06;4976291;28;20510;-72
2021/12/25 09:51:53;;;;;;;62.30;30.55;;;;;;;4.55;100.00;100228.97;4970849;28;20042;-72
2021/12/25 09:54:21;;;;;;;124.57;43.72;;;;;;;4.55;100.00;100234.38;4988668;28;20379;-72
2021/12/25 09:56:51;;;;;;;89.53;37.22;;;;;;;4.61;100.00;100222.53;4976989;28;20042;-72
2021/12/25 09:59:20;;;;;;;89.85;36.50;;;;;;;4.82;100.00;100228.25;4984834;28;20045;-72
2021/12/25 10:01:52;;;;;;;60.75;31.75;;;;;;;5.02;100.00;100221.44;4988677;28;20042;-72
2021/12/25 10:04:40;;;;;;;89.05;35.70;;;;;;;5.04;100.00;100222.03;4972496;28;20043;-70
2021/12/25 10:07:27;;;;;;;55.80;28.90;;;;;;;5.02;100.00;100230.41;4986705;28;20049;-76
2021/12/25 10:10:10;;;;;;;51.70;28.55;;;;;;;4.98;100.00;100221.13;4979318;28;20490;-71
2021/12/25 10:12:45;;;;;;;56.08;29.70;;;;;;;4.81;100.00;100218.47;4985210;28;20405;-71
2021/12/25 10:15:19;;;;;;;58.78;30.00;;;;;;;4.70;100.00;100209.38;4995283;28;20402;-71
2021/12/25 10:17:49;;;;;;;;;;;;;;;4.71;100.00;100214.53;5000684;28;20057;-72
2021/12/25 10:20:23;;;;;;;52.95;28.42;;;;;;;4.76;100.00;100208.38;4990732;28;19922;-72
2021/12/25 10:23:00;;;;;;;;;;;;;;;4.90;100.00;100203.41;4991684;28;20058;-71
2021/12/25 10:25:35;;;;;;;58.70;28.05;;;;;;;4.92;100.00;100193.13;4987431;28;19922;-72
2021/12/25 10:28:08;;;;;;;53.20;28.60;;;;;;;4.76;100.00;100207.56;4988662;28;20065;-72
2021/12/25 10:30:51;;;;;;;58.77;30.97;;;;;;;4.67;100.00;100220.72;4990072;28;20046;-72
2021/12/25 10:33:37;;;;;;;57.88;31.65;;;;;;;4.69;100.00;100210.44;4990212;28;20294;-71
2021/12/25 10:36:22;;;;;;;59.70;30.38;;;;;;;4.89;100.00;100209.09;4972662;28;20528;-70
2021/12/25 10:38:58;;;;;;;54.25;30.10;;;;;;;4.78;100.00;100206.22;4984576;28;20389;-71
2021/12/25 10:41:27;;;;;;;52.08;27.60;;;;;;;4.63;100.00;100200.59;4966860;28;20052;-72
2021/12/25 10:44:16;;;;;;;57.50;27.58;;;;;;;4.58;100.00;100198.63;4988556;28;20035;-71
2021/12/25 10:46:55;;;;;;;59.63;29.85;;;;;;;4.54;100.00;100201.03;4991713;28;20401;-70
2021/12/25 10:49:29;;;;;;;55.92;28.63;;;;;;;4.69;100.00;100196.88;4989894;28;20473;-71
2021/12/25 10:52:26;;;;;;;55.45;30.45;;;;;;;4.72;100.00;100188.25;4974574;28;20049;-71
2021/12/25 10:55:00;;;;;;;72.95;37.17;;;;;;;4.73;100.00;100187.19;4990407;28;20054;-71
2021/12/25 10:57:40;;;;;;;56.95;30.58;;;;;;;4.83;100.00;100176.47;4988390;28;20057;-71
2021/12/25 11:00:19;;;;;;;60.00;31.40;;;;;;;4.87;100.00;100178.66;4976056;28;20038;-72
2021/12/25 11:02:51;;;;;;;63.22;31.38;;;;;;;4.80;100.00;100174.25;4991228;28;20048;-71
2021/12/25 11:05:27;;;;;;;60.35;30.67;;;;;;;4.72;100.00;100174.69;4987166;28;20042;-71
2021/12/25 11:08:04;;;;;;;66.90;31.83;;;;;;;4.77;100.00;100171.22;4991352;28;20043;-72
2021/12/25 11:10:42;;;;;;;62.42;33.17;;;;;;;4.83;100.00;100171.06;4991422;28;20047;-71
2021/12/25 11:13:34;;;;;;;61.75;31.67;;;;;;;4.98;100.00;100167.72;4991332;28;20057;-72
2021/12/25 11:16:12;;;;;;;74.22;38.67;;;;;;;4.93;100.00;100156.81;4987605;28;20072;-71
2021/12/25 11:18:51;;;;;;;69.72;34.53;;;;;;;4.93;100.00;100159.50;4941125;28;20069;-71
2021/12/25 11:21:19;;;;;;;69.45;35.90;;;;;;;4.91;100.00;100147.28;4941946;28;20053;-71
2021/12/25 11:23:47;;;;;;;73.20;36.10;;;;;;;4.91;100.00;100139.16;4942302;28;20050;-71
2021/12/25 11:26:15;;;;;;;56.03;30.73;;;;;;;4.95;100.00;100140.28;4973480;28;20050;-71
2021/12/25 11:28:44;;;;;;;64.55;33.35;;;;;;;5.03;100.00;100136.31;4958894;28;20416;-71
2021/12/25 11:31:14;;;;;;;62.47;32.92;;;;;;;5.14;100.00;100131.81;4943299;28;20065;-71
2021/12/25 11:33:43;;;;;;;72.45;35.50;;;;;;;5.21;100.00;100132.44;4935242;28;20046;-71
2021/12/25 11:36:11;;;;;;;65.72;33.53;;;;;;;4.98;100.00;100120.78;4933552;28;20050;-70
2021/12/25 11:38:39;;;;;;;63.25;33.78;;;;;;;5.09;100.00;100122.53;4957576;28;20054;-72
2021/12/25 11:41:09;;;;;;;67.25;35.83;;;;;;;5.02;100.00;100121.94;4991861;28;20057;-71
2021/12/25 11:43:44;;;;;;;69.55;36.28;;;;;;;5.15;100.00;100123.44;4980502;28;20046;-71
2021/12/25 11:46:15;;;;;;;85.43;44.03;;;;;;;5.27;100.00;100125.97;4962276;28;20401;-71
2021/12/25 11:48:44;;;;;;;65.57;33.85;;;;;;;5.39;100.00;100115.00;4989381;28;20069;-71
2021/12/25 11:51:29;;;;;;;70.85;35.17;;;;;;;5.13;100.00;100103.06;4985733;28;20046;-71
2021/12/25 11:56:39;;;;;;;107.45;58.90;;;;;;;5.29;100.00;100094.00;4979652;28;20054;-71
2021/12/25 11:59:13;;;;;;;78.85;40.95;;;;;;;5.17;100.00;100083.28;4977653;28;20055;-71
2021/12/25 12:01:49;;;;;;;72.95;36.55;;;;;;;5.13;100.00;100090.28;4975895;28;20054;-70
2021/12/25 12:04:25;;;;;;;68.60;37.13;;;;;;;5.15;100.00;100087.34;4981982;28;20055;-71
2021/12/25 12:06:59;;;;;;;69.03;37.58;;;;;;;5.32;100.00;100084.53;4977865;28;20058;-72
2021/12/25 12:09:46;;;;;;;66.38;34.78;;;;;;;5.19;100.00;100075.72;4965329;28;20057;-71
2021/12/25 12:12:32;;;;;;;66.88;35.50;;;;;;;5.15;100.00;100069.19;4971997;28;20053;-72
2021/12/25 12:15:20;;;;;;;80.07;43.78;;;;;;;5.19;100.00;100070.28;4971417;28;20576;-72
2021/12/25 12:18:34;;;;;;;68.03;36.55;;;;;;;4.96;100.00;100064.13;4973238;28;20172;-71
2021/12/25 12:21:23;;;;;;;69.13;34.42;;;;;;;4.94;100.00;100077.09;4951850;28;20051;-71
2021/12/25 12:26:44;;;;;;;79.50;37.67;;;;;;;5.05;100.00;100072.63;4991145;28;20042;-70
2021/12/25 12:29:13;;;;;;;76.22;39.03;;;;;;;5.13;100.00;100070.50;4988963;28;20058;-70
2021/12/25 12:31:45;;;;;;;69.30;37.65;;;;;;;5.11;100.00;100062.63;4942711;28;20054;-70
2021/12/25 12:34:38;;;;;;;70.53;37.85;;;;;;;5.33;100.00;100054.41;4958361;28;20496;-70
2021/12/25 12:37:14;;;;;;;69.38;35.58;;;;;;;5.33;100.00;100064.47;4987607;28;20043;-72
2021/12/25 12:39:56;;;;;;;67.22;33.92;;;;;;;5.24;100.00;100061.41;4957307;28;20058;-73
2021/12/25 12:42:44;;;;;;;62.67;31.27;;;;;;;5.14;100.00;100056.69;4940373;28;20505;-72
2021/12/25 12:45:35;;;;;;;60.55;32.22;;;;;;;5.07;100.00;100050.63;4955316;28;20046;-72
2021/12/25 12:48:20;;;;;;;62.55;34.92;;;;;;;5.11;100.00;100063.44;4988769;28;20050;-73
2021/12/25 12:50:51;;;;;;;63.10;32.25;;;;;;;5.20;100.00;100057.56;4932208;28;20046;-70
2021/12/25 12:53:22;;;;;;;61.05;33.58;;;;;;;5.42;100.00;100059.38;4972590;28;20381;-72
2021/12/25 12:55:55;;;;;;;65.93;35.58;;;;;;;5.47;100.00;100043.16;4942425;28;20049;-72
2021/12/25 12:58:26;;;;;;;62.55;33.13;;;;;;;5.50;100.00;100045.34;4958169;28;20484;-71
2021/12/25 13:01:01;;;;;;;65.18;33.92;;;;;;;5.50;100.00;100038.00;4991767;28;20714;-71
2021/12/25 13:03:30;;;;;;;64.25;35.20;;;;;;;5.51;100.00;100038.81;4975130;28;20050;-71
2021/12/25 13:06:10;;;;;;;61.90;32.72;;;;;;;5.50;100.00;100034.47;4975001;28;20053;-71